createdAt,value
2024-02-26T00:01:07.150Z,3.55
2024-02-26T00:03:07.034Z,3.09
2024-02-26T00:05:07.026Z,2.56
2024-02-26T00:07:07.071Z,3.25
2024-02-26T00:09:07.054Z,3.34
2024-02-26T00:11:07.119Z,2.93
2024-02-26T00:13:07.057Z,3.67
2024-02-26T00:15:07.034Z,2.83
2024-02-26T00:18:07.208Z,3.54
2024-02-26T00:20:07.034Z,3.38
2024-02-26T00:24:07.087Z,3.22
2024-02-26T00:28:07.058Z,2.90
2024-02-26T00:31:10.001Z,3.25
2024-02-26T00:33:07.119Z,3.54
2024-02-26T00:36:07.094Z,3.19
2024-02-26T00:38:07.074Z,3.20
2024-02-26T00:42:07.211Z,3.14
2024-02-26T00:44:07.118Z,3.02
2024-02-26T00:46:07.094Z,2.77
2024-02-26T00:49:07.211Z,2.74
2024-02-26T00:51:07.217Z,3.38
2024-02-26T00:53:07.109Z,3.19
2024-02-26T00:55:07.170Z,2.96
2024-02-26T00:57:07.183Z,3.07
2024-02-26T00:59:07.129Z,3.30
2024-02-26T01:01:07.149Z,3.18
2024-02-26T01:03:07.319Z,3.23
2024-02-26T01:06:07.236Z,2.80
2024-02-26T01:09:07.238Z,2.57
2024-02-26T01:11:07.237Z,2.26
2024-02-26T01:13:07.188Z,2.70
2024-02-26T01:16:07.205Z,2.57
2024-02-26T01:18:07.300Z,2.31
2024-02-26T01:20:07.174Z,2.52
2024-02-26T01:22:07.182Z,1.82
2024-02-26T01:24:07.322Z,2.12
2024-02-26T01:26:07.230Z,1.88
2024-02-26T01:28:07.194Z,2.43
2024-02-26T01:30:07.254Z,2.48
2024-02-26T01:32:07.213Z,2.15
2024-02-26T01:34:07.324Z,2.46
2024-02-26T01:36:07.312Z,2.23
2024-02-26T01:38:07.227Z,2.18
2024-02-26T01:40:07.211Z,2.04
2024-02-26T01:42:07.290Z,1.79
2024-02-26T01:44:07.280Z,2.37
2024-02-26T01:46:07.227Z,2.22
2024-02-26T01:48:07.352Z,2.27
2024-02-26T01:50:07.280Z,2.46
2024-02-26T01:52:07.317Z,2.49
2024-02-26T01:54:07.285Z,1.94
2024-02-26T01:56:07.272Z,2.54
2024-02-26T01:58:07.275Z,2.41
2024-02-26T02:00:07.346Z,2.19
2024-02-26T02:02:07.300Z,2.48
2024-02-26T02:04:07.348Z,2.98
2024-02-26T02:07:07.576Z,1.89
2024-02-26T02:09:07.364Z,2.22
2024-02-26T02:11:07.302Z,2.59
2024-02-26T02:15:07.411Z,2.20
2024-02-26T02:17:07.317Z,3.02
2024-02-26T02:19:07.361Z,2.12
2024-02-26T02:22:11.338Z,2.08
2024-02-26T02:25:07.373Z,2.47
2024-02-26T02:27:07.392Z,2.59
2024-02-26T02:29:07.317Z,2.03
2024-02-26T02:31:07.393Z,2.26
2024-02-26T02:34:07.391Z,2.37
2024-02-26T02:36:07.428Z,2.35
2024-02-26T02:38:07.402Z,2.44
2024-02-26T02:40:07.365Z,2.34
2024-02-26T02:42:07.418Z,2.02
2024-02-26T02:44:07.375Z,2.57
2024-02-26T02:47:07.384Z,2.19
2024-02-26T02:51:07.474Z,2.53
2024-02-26T02:53:07.412Z,2.84
2024-02-26T02:56:07.433Z,2.46
2024-02-26T02:59:11.834Z,2.54
2024-02-26T03:01:07.475Z,2.85
2024-02-26T03:03:07.549Z,2.00
2024-02-26T03:05:07.457Z,2.58
2024-02-26T03:07:07.533Z,2.16
2024-02-26T03:09:07.508Z,3.28
2024-02-26T03:11:07.504Z,2.61
2024-02-26T03:13:07.449Z,2.60
2024-02-26T03:15:07.548Z,2.48
2024-02-26T03:17:07.480Z,2.28
2024-02-26T03:19:07.608Z,2.84
2024-02-26T03:21:07.581Z,2.34
2024-02-26T03:23:07.508Z,2.51
2024-02-26T03:26:07.495Z,2.20
2024-02-26T03:28:07.532Z,2.30
2024-02-26T03:30:07.574Z,2.15
2024-02-26T03:32:07.487Z,1.99
2024-02-26T03:34:07.753Z,2.82
2024-02-26T03:36:12.245Z,2.34
2024-02-26T03:38:07.556Z,2.17
2024-02-26T03:40:07.529Z,1.94
2024-02-26T03:42:07.571Z,2.13
2024-02-26T03:44:07.544Z,1.98
2024-02-26T03:46:07.553Z,2.22
2024-02-26T03:49:07.662Z,1.97
2024-02-26T03:51:07.620Z,2.17
2024-02-26T03:53:08.260Z,2.25
2024-02-26T03:55:07.540Z,2.51
2024-02-26T03:57:07.598Z,2.34
2024-02-26T03:59:07.604Z,1.80
2024-02-26T04:01:07.676Z,1.94
2024-02-26T04:03:07.618Z,2.19
2024-02-26T04:05:07.559Z,2.09
2024-02-26T04:07:07.885Z,2.31
2024-02-26T04:09:07.701Z,1.67
2024-02-26T04:11:07.659Z,2.16
2024-02-26T04:13:12.608Z,2.34
2024-02-26T04:15:07.659Z,2.08
2024-02-26T04:20:07.605Z,1.77
2024-02-26T04:22:07.660Z,1.57
2024-02-26T04:24:07.671Z,1.60
2024-02-26T04:26:07.638Z,1.56
2024-02-26T04:28:07.645Z,1.72
2024-02-26T04:30:07.742Z,1.67
2024-02-26T04:32:07.685Z,1.73
2024-02-26T04:34:07.762Z,1.52
2024-02-26T04:36:07.702Z,1.51
2024-02-26T04:38:07.692Z,1.28
2024-02-26T04:40:07.707Z,1.82
2024-02-26T04:42:07.727Z,1.52
2024-02-26T04:46:07.684Z,1.35
2024-02-26T04:48:07.824Z,1.65
2024-02-26T04:51:07.712Z,1.59
2024-02-26T04:55:07.729Z,1.82
2024-02-26T04:57:07.731Z,1.66
2024-02-26T04:59:07.707Z,2.08
2024-02-26T05:02:07.749Z,2.16
2024-02-26T05:04:07.828Z,1.95
2024-02-26T05:06:07.863Z,1.65
2024-02-26T05:08:07.726Z,2.11
2024-02-26T05:10:07.778Z,1.83
2024-02-26T05:12:07.753Z,2.25
2024-02-26T05:14:07.773Z,1.72
2024-02-26T05:16:07.795Z,1.97
2024-02-26T05:18:07.828Z,1.75
2024-02-26T05:20:07.828Z,1.90
2024-02-26T05:22:07.773Z,1.76
2024-02-26T05:25:07.776Z,1.63
2024-02-26T05:27:07.848Z,1.57
2024-02-26T05:29:07.822Z,1.65
2024-02-26T05:32:07.821Z,1.96
2024-02-26T05:35:07.834Z,1.72
2024-02-26T05:37:07.847Z,2.02
2024-02-26T05:39:08.780Z,1.64
2024-02-26T05:41:07.802Z,1.89
2024-02-26T05:46:07.830Z,2.02
2024-02-26T05:48:07.932Z,1.94
2024-02-26T05:50:07.866Z,2.29
2024-02-26T05:52:07.875Z,1.97
2024-02-26T05:55:07.883Z,1.89
2024-02-26T05:57:07.929Z,1.99
2024-02-26T06:00:07.953Z,1.88
2024-02-26T06:03:07.911Z,3.25
2024-02-26T06:05:07.899Z,2.45
2024-02-26T06:07:07.959Z,1.94
2024-02-26T06:09:07.920Z,2.26
2024-02-26T06:11:08.161Z,2.11
2024-02-26T06:13:07.935Z,1.99
2024-02-26T06:15:07.918Z,1.91
2024-02-26T06:17:07.893Z,2.11
2024-02-26T06:19:09.799Z,2.10
2024-02-26T06:21:08.000Z,1.65
2024-02-26T06:23:07.910Z,2.22
2024-02-26T06:25:07.935Z,2.35
2024-02-26T06:27:08.014Z,2.43
2024-02-26T06:29:07.990Z,1.76
2024-02-26T06:31:07.922Z,2.07
2024-02-26T06:34:08.088Z,2.08
2024-02-26T06:36:07.966Z,2.37
2024-02-26T06:38:09.386Z,3.22
2024-02-26T06:40:08.176Z,2.24
2024-02-26T06:42:08.030Z,2.40
2024-02-26T06:44:07.957Z,3.01
2024-02-26T06:46:08.006Z,1.67
2024-02-26T06:48:08.148Z,2.41
2024-02-26T06:50:08.046Z,2.34
2024-02-26T06:52:08.010Z,2.56
2024-02-26T06:54:08.011Z,1.94
2024-02-26T06:56:07.998Z,1.78
2024-02-26T06:58:08.019Z,2.38
2024-02-26T07:00:08.307Z,2.51
2024-02-26T07:03:08.058Z,2.23
2024-02-26T07:05:08.039Z,1.97
2024-02-26T07:07:08.172Z,2.43
2024-02-26T07:09:08.058Z,2.84
2024-02-26T07:13:08.061Z,2.75
2024-02-26T07:15:09.927Z,2.27
2024-02-26T07:17:08.042Z,1.79
2024-02-26T07:19:08.184Z,1.94
2024-02-26T07:21:08.174Z,1.78
2024-02-26T07:23:08.043Z,2.27
2024-02-26T07:25:08.082Z,2.48
2024-02-26T07:27:08.099Z,2.22
2024-02-26T07:29:08.097Z,2.00
2024-02-26T07:31:08.118Z,1.61
2024-02-26T07:33:08.191Z,2.36
2024-02-26T07:35:08.181Z,2.03
2024-02-26T07:37:08.144Z,1.93
2024-02-26T07:39:08.194Z,2.37
2024-02-26T07:41:08.112Z,2.16
2024-02-26T07:43:08.123Z,2.90
2024-02-26T07:45:08.182Z,2.50
2024-02-26T07:47:08.150Z,2.52
2024-02-26T07:49:08.208Z,2.51
2024-02-26T07:51:08.160Z,2.82
2024-02-26T07:53:08.146Z,1.95
2024-02-26T07:55:08.288Z,2.53
2024-02-26T07:57:08.215Z,3.06
2024-02-26T07:59:08.147Z,9.63
2024-02-26T08:01:08.179Z,4.09
2024-02-26T08:03:08.272Z,2.20
2024-02-26T08:05:08.221Z,2.60
2024-02-26T08:07:08.242Z,1.75
2024-02-26T08:09:08.194Z,2.24
2024-02-26T08:11:08.202Z,1.65
2024-02-26T08:13:08.244Z,1.59
2024-02-26T08:15:08.268Z,1.72
2024-02-26T08:17:08.187Z,1.89
2024-02-26T08:19:08.350Z,1.48
2024-02-26T08:21:08.270Z,1.55
2024-02-26T08:23:08.245Z,1.85
2024-02-26T08:25:08.239Z,1.89
2024-02-26T08:27:08.234Z,2.09
2024-02-26T08:29:10.824Z,2.08
2024-02-26T08:31:08.281Z,1.97
2024-02-26T08:33:08.376Z,2.21
2024-02-26T08:35:08.276Z,2.26
2024-02-26T08:37:08.241Z,2.10
2024-02-26T08:39:08.372Z,2.65
2024-02-26T08:41:08.303Z,4.16
2024-02-26T08:43:08.291Z,3.08
2024-02-26T08:45:08.308Z,2.95
2024-02-26T08:47:08.300Z,2.45
2024-02-26T08:49:08.458Z,3.69
2024-02-26T08:51:08.307Z,2.68
2024-02-26T08:53:08.284Z,2.25
2024-02-26T08:55:08.322Z,2.37
2024-02-26T08:57:08.412Z,3.03
2024-02-26T08:59:08.305Z,2.54
2024-02-26T09:01:08.429Z,2.63
2024-02-26T09:03:08.368Z,2.93
2024-02-26T09:05:08.432Z,2.68
2024-02-26T09:07:08.424Z,2.42
2024-02-26T09:09:08.404Z,2.73
2024-02-26T09:11:08.330Z,2.60
2024-02-26T09:13:08.317Z,2.67
2024-02-26T09:15:08.435Z,2.21
2024-02-26T09:17:08.365Z,3.54
2024-02-26T09:19:08.568Z,3.02
2024-02-26T09:21:08.415Z,3.10
2024-02-26T09:23:08.410Z,3.26
2024-02-26T09:25:08.428Z,3.07
2024-02-26T09:27:08.441Z,2.47
2024-02-26T09:31:08.402Z,2.52
2024-02-26T09:33:08.498Z,3.09
2024-02-26T09:36:08.439Z,3.04
2024-02-26T09:39:08.495Z,2.95
2024-02-26T09:41:08.435Z,2.42
2024-02-26T09:43:11.608Z,2.64
2024-02-26T09:45:08.459Z,2.59
2024-02-26T09:47:08.421Z,2.73
2024-02-26T09:49:08.498Z,2.76
2024-02-26T09:51:08.520Z,2.97
2024-02-26T09:53:08.482Z,2.91
2024-02-26T09:55:08.443Z,3.55
2024-02-26T09:57:08.540Z,3.96
2024-02-26T09:59:08.495Z,3.87
2024-02-26T10:01:08.529Z,3.80
2024-02-26T10:03:08.534Z,3.52
2024-02-26T10:05:08.522Z,3.71
2024-02-26T10:07:08.633Z,3.38
2024-02-26T10:09:08.545Z,3.44
2024-02-26T10:11:08.468Z,3.75
2024-02-26T10:13:08.476Z,3.99
2024-02-26T10:15:08.528Z,3.85
2024-02-26T10:17:08.545Z,3.43
2024-02-26T10:19:08.623Z,3.16
2024-02-26T10:21:08.547Z,3.29
2024-02-26T10:24:08.534Z,2.81
2024-02-26T10:26:08.534Z,2.58
2024-02-26T10:28:08.538Z,3.72
2024-02-26T10:30:08.647Z,3.92
2024-02-26T10:32:08.580Z,3.53
2024-02-26T10:34:08.666Z,3.15
2024-02-26T10:36:08.657Z,3.20
2024-02-26T10:38:08.624Z,3.31
2024-02-26T10:40:08.585Z,3.78
2024-02-26T10:43:08.601Z,3.12
2024-02-26T10:45:08.627Z,3.41
2024-02-26T10:47:08.589Z,3.46
2024-02-26T10:49:08.686Z,3.63
2024-02-26T10:51:08.642Z,2.92
2024-02-26T10:53:08.632Z,3.63
2024-02-26T10:55:08.987Z,3.96
2024-02-26T10:57:12.754Z,2.95
2024-02-26T10:59:08.641Z,3.35
2024-02-26T11:02:08.636Z,3.48
2024-02-26T11:04:08.694Z,3.16
2024-02-26T11:06:08.764Z,3.71
2024-02-26T11:08:08.623Z,3.31
2024-02-26T11:10:08.631Z,3.66
2024-02-26T11:12:08.720Z,3.10
2024-02-26T11:14:08.678Z,3.54
2024-02-26T11:16:08.643Z,3.44
2024-02-26T11:19:08.808Z,3.46
2024-02-26T11:22:18.470Z,3.45
2024-02-26T11:23:08.648Z,3.22
2024-02-26T11:25:08.739Z,2.72
2024-02-26T11:28:08.684Z,3.21
2024-02-26T11:30:08.741Z,3.30
2024-02-26T11:32:08.748Z,3.57
2024-02-26T11:34:13.232Z,3.39
2024-02-26T11:36:08.730Z,3.39
2024-02-26T11:39:08.704Z,2.49
2024-02-26T11:42:08.844Z,2.98
2024-02-26T11:44:08.727Z,3.15
2024-02-26T11:47:08.786Z,3.10
2024-02-26T11:49:08.815Z,3.58
2024-02-26T11:51:08.765Z,3.23
2024-02-26T11:53:08.774Z,3.67
2024-02-26T11:55:08.782Z,3.48
2024-02-26T11:57:08.809Z,3.70
2024-02-26T11:58:08.783Z,3.29
2024-02-26T12:00:08.976Z,3.61
2024-02-26T12:02:08.770Z,2.99
2024-02-26T12:03:08.877Z,3.33
2024-02-26T12:05:08.847Z,3.22
2024-02-26T12:07:08.783Z,3.06
2024-02-26T12:09:08.852Z,2.82
2024-02-26T12:11:13.495Z,3.10
2024-02-26T12:13:08.826Z,3.33
2024-02-26T12:16:08.829Z,3.13
2024-02-26T12:18:09.106Z,3.45
2024-02-26T12:20:08.882Z,3.70
2024-02-26T12:22:08.808Z,3.26
2024-02-26T12:24:08.875Z,2.92
2024-02-26T12:26:10.785Z,3.16
2024-02-26T12:28:08.834Z,2.94
2024-02-26T12:30:08.907Z,3.02
2024-02-26T12:32:08.899Z,3.02
2024-02-26T12:34:08.921Z,3.40
2024-02-26T12:36:08.983Z,3.22
2024-02-26T12:38:08.861Z,3.07
2024-02-26T12:40:08.863Z,3.33
2024-02-26T12:42:08.930Z,2.98
2024-02-26T12:44:08.904Z,3.12
2024-02-26T12:46:09.349Z,3.39
2024-02-26T12:48:14.081Z,3.54
2024-02-26T12:50:09.588Z,3.59
2024-02-26T12:52:08.920Z,3.27
2024-02-26T12:54:08.973Z,3.38
2024-02-26T12:56:08.964Z,3.25
2024-02-26T12:58:08.894Z,3.81
2024-02-26T13:00:08.978Z,3.30
2024-02-26T13:02:09.008Z,3.89
2024-02-26T13:04:08.964Z,3.34
2024-02-26T13:06:09.054Z,3.39
2024-02-26T13:08:09.718Z,3.49
2024-02-26T13:10:08.976Z,3.48
2024-02-26T13:12:09.008Z,3.62
2024-02-26T13:14:09.202Z,3.53
2024-02-26T13:16:09.028Z,2.96
2024-02-26T13:18:09.074Z,2.52
2024-02-26T13:20:08.980Z,3.61
2024-02-26T13:22:09.253Z,3.70
2024-02-26T13:24:09.021Z,3.14
2024-02-26T13:27:08.984Z,2.91
2024-02-26T13:29:08.979Z,3.71
2024-02-26T13:31:09.012Z,3.67
2024-02-26T13:33:09.115Z,3.28
2024-02-26T13:36:09.151Z,2.77
2024-02-26T13:39:09.057Z,3.46
2024-02-26T13:41:09.038Z,3.24
2024-02-26T13:44:09.068Z,3.93
2024-02-26T13:47:09.030Z,3.21
2024-02-26T13:49:09.183Z,3.09
2024-02-26T13:51:09.116Z,4.55
2024-02-26T13:53:09.186Z,3.27
2024-02-26T13:55:09.039Z,3.83
2024-02-26T13:57:09.092Z,2.73
2024-02-26T13:59:09.697Z,3.77
2024-02-26T14:01:09.134Z,2.99
2024-02-26T14:03:09.183Z,3.23
2024-02-26T14:05:09.089Z,3.02
2024-02-26T14:07:09.277Z,3.14
2024-02-26T14:09:09.189Z,5.02
2024-02-26T14:11:09.158Z,3.75
2024-02-26T14:13:09.103Z,3.36
2024-02-26T14:15:10.192Z,3.67
2024-02-26T14:17:09.143Z,3.17
2024-02-26T14:19:10.031Z,3.61
2024-02-26T14:21:09.182Z,3.41
2024-02-26T14:23:09.124Z,3.49
2024-02-26T14:25:09.177Z,2.94
2024-02-26T14:27:09.200Z,3.15
2024-02-26T14:29:09.143Z,3.53
2024-02-26T14:31:09.169Z,3.46
2024-02-26T14:34:09.293Z,3.94
2024-02-26T14:37:09.142Z,3.64
2024-02-26T14:39:09.207Z,3.98
2024-02-26T14:41:09.184Z,3.21
2024-02-26T14:43:09.190Z,3.77
2024-02-26T14:45:09.267Z,3.18
2024-02-26T14:47:09.165Z,3.15
2024-02-26T14:53:09.232Z,3.21
2024-02-26T14:55:09.206Z,3.09
2024-02-26T14:58:09.226Z,3.53
2024-02-26T15:00:09.283Z,3.61
2024-02-26T15:02:09.212Z,3.46
2024-02-26T15:04:09.352Z,3.54
2024-02-26T15:06:09.344Z,2.97
2024-02-26T15:08:09.221Z,3.32
2024-02-26T15:10:09.229Z,3.13
2024-02-26T15:12:09.346Z,3.14
2024-02-26T15:14:09.286Z,3.50
2024-02-26T15:16:09.293Z,3.06
2024-02-26T15:18:09.362Z,3.47
2024-02-26T15:20:09.568Z,3.57
2024-02-26T15:22:09.254Z,3.17
2024-02-26T15:24:09.415Z,2.87
2024-02-26T15:28:09.274Z,3.19
2024-02-26T15:30:09.323Z,3.17
2024-02-26T15:32:09.298Z,3.09
2024-02-26T15:34:09.646Z,3.33
2024-02-26T15:36:09.369Z,3.32
2024-02-26T15:38:09.300Z,3.34
2024-02-26T15:40:09.304Z,2.83
2024-02-26T15:42:09.392Z,3.27
2024-02-26T15:45:09.340Z,3.50
2024-02-26T15:52:09.406Z,3.09
2024-02-26T15:54:09.459Z,2.53
2024-02-26T15:56:09.350Z,3.16
2024-02-26T15:58:09.358Z,2.57
2024-02-26T16:00:09.407Z,2.93
2024-02-26T16:02:09.451Z,3.04
2024-02-26T16:04:09.407Z,3.21
2024-02-26T16:07:09.498Z,3.24
2024-02-26T16:09:09.437Z,2.96
2024-02-26T16:11:09.451Z,2.73
2024-02-26T16:13:09.422Z,3.52
2024-02-26T16:15:09.415Z,2.80
2024-02-26T16:17:09.415Z,3.16
2024-02-26T16:18:09.711Z,2.89
2024-02-26T16:21:09.448Z,3.38
2024-02-26T16:23:09.453Z,2.90
2024-02-26T16:25:09.560Z,3.08
2024-02-26T16:28:09.489Z,3.70
2024-02-26T16:31:09.473Z,3.86
2024-02-26T16:33:09.572Z,7.03
2024-02-26T16:35:09.486Z,4.82
2024-02-26T16:37:09.473Z,4.01
2024-02-26T16:39:09.476Z,4.72
2024-02-26T16:41:09.490Z,3.25
2024-02-26T16:43:09.504Z,3.38
2024-02-26T16:45:09.574Z,2.97
2024-02-26T16:47:09.476Z,2.86
2024-02-26T16:49:09.705Z,5.66
2024-02-26T16:51:09.516Z,7.53
2024-02-26T16:53:09.485Z,6.65
2024-02-26T16:55:09.501Z,3.63
2024-02-26T16:57:09.553Z,3.72
2024-02-26T16:59:09.544Z,3.95
2024-02-26T17:01:09.541Z,3.33
2024-02-26T17:03:09.582Z,3.07
2024-02-26T17:05:09.608Z,3.03
2024-02-26T17:07:09.551Z,3.28
2024-02-26T17:09:09.696Z,4.14
2024-02-26T17:11:09.555Z,4.94
2024-02-26T17:13:09.559Z,3.11
2024-02-26T17:15:09.632Z,5.24
2024-02-26T17:17:09.590Z,3.94
2024-02-26T17:19:09.667Z,2.86
2024-02-26T17:21:09.635Z,3.06
2024-02-26T17:24:09.666Z,3.12
2024-02-26T17:26:09.597Z,3.17
2024-02-26T17:29:09.592Z,3.12
2024-02-26T17:31:09.580Z,3.15
2024-02-26T17:33:09.763Z,4.28
2024-02-26T17:35:09.697Z,3.30
2024-02-26T17:37:09.636Z,2.74
2024-02-26T17:39:09.608Z,2.76
2024-02-26T17:42:09.627Z,3.16
2024-02-26T17:45:09.698Z,2.67
2024-02-26T17:48:09.882Z,3.24
2024-02-26T17:50:09.664Z,2.48
2024-02-26T17:52:09.645Z,3.03
2024-02-26T17:54:09.686Z,2.49
2024-02-26T17:56:09.673Z,2.30
2024-02-26T17:58:09.694Z,3.67
2024-02-26T18:01:09.761Z,3.95
2024-02-26T18:03:09.860Z,3.13
2024-02-26T18:05:09.680Z,3.27
2024-02-26T18:07:09.775Z,3.24
2024-02-26T18:09:09.751Z,3.02
2024-02-26T18:11:09.832Z,4.56
2024-02-26T18:13:09.705Z,3.06
2024-02-26T18:15:09.727Z,3.37
2024-02-26T18:17:09.726Z,3.21
2024-02-26T18:19:10.014Z,3.31
2024-02-26T18:23:09.723Z,3.43
2024-02-26T18:26:09.721Z,3.21
2024-02-26T18:28:09.752Z,3.53
2024-02-26T18:30:09.819Z,3.59
2024-02-26T18:32:09.769Z,3.36
2024-02-26T18:34:09.816Z,2.67
2024-02-26T18:36:09.826Z,5.64
2024-02-26T18:40:09.792Z,4.54
2024-02-26T18:42:09.792Z,4.42
2024-02-26T18:45:09.884Z,3.70
2024-02-26T18:47:09.794Z,2.68
2024-02-26T18:49:09.856Z,2.19
2024-02-26T18:51:09.814Z,2.92
2024-02-26T18:53:09.811Z,3.03
2024-02-26T18:55:12.932Z,3.15
2024-02-26T18:57:09.934Z,3.09
2024-02-26T19:00:09.890Z,3.23
2024-02-26T19:02:09.811Z,2.89
2024-02-26T19:05:09.826Z,4.74
2024-02-26T19:07:09.861Z,3.98
2024-02-26T19:09:09.855Z,3.81
2024-02-26T19:11:10.217Z,3.78
2024-02-26T19:13:10.317Z,3.49
2024-02-26T19:15:09.921Z,3.28
2024-02-26T19:17:09.858Z,2.90
2024-02-26T19:21:09.906Z,2.79
2024-02-26T19:25:09.868Z,3.18
2024-02-26T19:27:09.955Z,3.39
2024-02-26T19:29:09.899Z,3.25
2024-02-26T19:31:09.881Z,3.44
2024-02-26T19:33:09.988Z,3.58
2024-02-26T19:36:09.960Z,3.19
2024-02-26T19:38:09.907Z,3.42
2024-02-26T19:40:09.939Z,3.79
2024-02-26T19:42:09.958Z,3.72
2024-02-26T19:44:09.917Z,4.96
2024-02-26T19:46:09.900Z,5.62
2024-02-26T19:48:10.050Z,4.57
2024-02-26T19:50:10.015Z,4.52
2024-02-26T19:52:09.966Z,4.75
2024-02-26T19:54:10.001Z,4.24
2024-02-26T19:56:09.951Z,7.63
2024-02-26T19:58:09.944Z,5.54
2024-02-26T20:00:10.043Z,4.80
2024-02-26T20:02:09.994Z,4.03
2024-02-26T20:04:10.019Z,4.62
2024-02-26T20:06:10.031Z,4.21
2024-02-26T20:08:10.013Z,4.22
2024-02-26T20:10:10.014Z,4.01
2024-02-26T20:12:10.035Z,4.74
2024-02-26T20:15:10.045Z,4.73
2024-02-26T20:17:10.028Z,4.06
2024-02-26T20:20:10.121Z,4.64
2024-02-26T20:23:10.065Z,3.93
2024-02-26T20:25:10.013Z,4.15
2024-02-26T20:27:10.032Z,4.29
2024-02-26T20:30:10.064Z,4.49
2024-02-26T20:32:10.018Z,4.75
2024-02-26T20:34:10.368Z,3.82
2024-02-26T20:36:10.124Z,3.90
2024-02-26T20:38:10.046Z,4.47
2024-02-26T20:41:10.095Z,4.36
2024-02-26T20:43:10.077Z,3.68
2024-02-26T20:45:10.101Z,3.91
2024-02-26T20:47:10.110Z,13.07
2024-02-26T20:49:10.222Z,6.78
2024-02-26T20:51:10.095Z,4.63
2024-02-26T20:53:13.731Z,4.42
2024-02-26T20:55:10.119Z,4.12
2024-02-26T20:57:10.161Z,3.96
2024-02-26T20:59:10.099Z,3.85
2024-02-26T21:01:10.093Z,4.13
2024-02-26T21:03:10.255Z,3.27
2024-02-26T21:05:10.672Z,4.40
2024-02-26T21:07:10.209Z,3.56
2024-02-26T21:09:10.236Z,3.44
2024-02-26T21:11:10.132Z,3.75
2024-02-26T21:13:10.149Z,4.00
2024-02-26T21:15:10.211Z,3.87
2024-02-26T21:17:10.148Z,4.98
2024-02-26T21:19:10.216Z,5.12
2024-02-26T21:21:10.212Z,4.47
2024-02-26T21:24:10.237Z,5.14
2024-02-26T21:26:10.220Z,5.26
2024-02-26T21:28:10.206Z,4.70
2024-02-26T21:30:10.239Z,6.33
2024-02-26T21:32:10.174Z,8.24
2024-02-26T21:34:10.275Z,7.33
2024-02-26T21:39:10.256Z,6.83
2024-02-26T21:42:10.228Z,6.01
2024-02-26T21:44:10.265Z,5.71
2024-02-26T21:46:10.252Z,4.85
2024-02-26T21:49:10.313Z,5.65
2024-02-26T21:51:10.289Z,5.30
2024-02-26T21:53:10.239Z,6.01
2024-02-26T21:55:10.238Z,6.54
2024-02-26T21:58:10.257Z,5.52
2024-02-26T22:00:15.215Z,5.67
2024-02-26T22:02:10.291Z,5.82
2024-02-26T22:04:10.515Z,6.07
2024-02-26T22:06:10.436Z,5.25
2024-02-26T22:09:10.347Z,6.45
2024-02-26T22:11:10.356Z,8.39
2024-02-26T22:13:10.278Z,9.19
2024-02-26T22:15:10.362Z,10.67
2024-02-26T22:17:10.320Z,10.37
2024-02-26T22:19:10.362Z,8.82
2024-02-26T22:21:10.318Z,8.21
2024-02-26T22:26:10.420Z,10.34
2024-02-26T22:28:10.315Z,9.51
2024-02-26T22:30:10.401Z,6.90
2024-02-26T22:32:10.372Z,6.81
2024-02-26T22:34:10.574Z,6.73
2024-02-26T22:36:10.386Z,7.50
2024-02-26T22:38:10.387Z,6.97
2024-02-26T22:40:10.390Z,7.31
2024-02-26T22:42:10.406Z,6.44
2024-02-26T22:44:10.352Z,5.25
2024-02-26T22:46:10.402Z,6.90
2024-02-26T22:48:10.550Z,8.00
2024-02-26T22:50:10.371Z,6.67
2024-02-26T22:53:10.422Z,6.36
2024-02-26T22:55:10.385Z,6.12
2024-02-26T22:57:10.418Z,6.49
2024-02-26T22:59:10.456Z,6.20
2024-02-26T23:01:10.480Z,6.19
2024-02-26T23:03:10.458Z,7.37
2024-02-26T23:05:10.404Z,9.06
2024-02-26T23:07:10.493Z,7.52
2024-02-26T23:09:10.504Z,6.66
2024-02-26T23:11:10.821Z,6.49
2024-02-26T23:13:10.425Z,5.67
2024-02-26T23:15:10.458Z,6.14
2024-02-26T23:17:10.457Z,4.99
2024-02-26T23:19:10.688Z,5.62
2024-02-26T23:21:10.541Z,5.22
2024-02-26T23:23:10.494Z,6.38
2024-02-26T23:25:10.457Z,5.55
2024-02-26T23:27:10.666Z,5.65
2024-02-26T23:29:10.492Z,6.53
2024-02-26T23:31:10.467Z,5.74
2024-02-26T23:33:10.642Z,6.14
2024-02-26T23:35:10.501Z,6.12
2024-02-26T23:37:10.532Z,5.27
2024-02-26T23:39:10.575Z,5.70
2024-02-26T23:43:10.579Z,5.28
2024-02-26T23:46:10.506Z,5.82
2024-02-26T23:48:11.363Z,5.36
2024-02-26T23:51:10.578Z,5.76
2024-02-26T23:58:10.548Z,5.90
